sensor_id;sensor_type;location;lat;lon;timestamp;P1;durP1;ratioP1;P2;durP2;ratioP2
13584;SDS011;6863;48.402;9.994;2022-08-03T00:01:45;5.80;;;4.75;;
13584;SDS011;6863;48.402;9.994;2022-08-03T00:04:11;7.35;;;5.07;;
13584;SDS011;6863;48.402;9.994;2022-08-03T00:06:36;5.43;;;4.50;;
13584;SDS011;6863;48.402;9.994;2022-08-03T00:09:05;5.13;;;4.50;;
13584;SDS011;6863;48.402;9.994;2022-08-03T00:11:31;5.00;;;4.60;;
13584;SDS011;6863;48.402;9.994;2022-08-03T00:13:57;6.05;;;4.60;;
13584;SDS011;6863;48.402;9.994;2022-08-03T00:16:23;5.15;;;4.65;;
13584;SDS011;6863;48.402;9.994;2022-08-03T00:18:50;5.70;;;4.85;;
13584;SDS011;6863;48.402;9.994;2022-08-03T00:21:16;4.82;;;4.47;;
13584;SDS011;6863;48.402;9.994;2022-08-03T00:23:41;5.00;;;4.40;;
13584;SDS011;6863;48.402;9.994;2022-08-03T00:26:07;5.32;;;4.93;;
13584;SDS011;6863;48.402;9.994;2022-08-03T00:28:33;5.75;;;5.25;;
13584;SDS011;6863;48.402;9.994;2022-08-03T00:30:58;7.18;;;4.80;;
13584;SDS011;6863;48.402;9.994;2022-08-03T00:33:24;6.15;;;4.90;;
13584;SDS011;6863;48.402;9.994;2022-08-03T00:35:50;5.00;;;4.47;;
13584;SDS011;6863;48.402;9.994;2022-08-03T00:38:16;5.35;;;4.85;;
13584;SDS011;6863;48.402;9.994;2022-08-03T00:40:42;5.28;;;4.78;;
13584;SDS011;6863;48.402;9.994;2022-08-03T00:43:07;5.65;;;5.07;;
13584;SDS011;6863;48.402;9.994;2022-08-03T00:45:34;4.68;;;4.28;;
13584;SDS011;6863;48.402;9.994;2022-08-03T00:48:02;7.78;;;4.75;;
13584;SDS011;6863;48.402;9.994;2022-08-03T00:50:30;10.48;;;5.47;;
13584;SDS011;6863;48.402;9.994;2022-08-03T00:52:58;5.72;;;5.22;;
13584;SDS011;6863;48.402;9.994;2022-08-03T00:55:25;5.82;;;5.38;;
13584;SDS011;6863;48.402;9.994;2022-08-03T00:57:51;6.13;;;5.63;;
13584;SDS011;6863;48.402;9.994;2022-08-03T01:00:22;5.90;;;5.28;;
13584;SDS011;6863;48.402;9.994;2022-08-03T01:02:49;5.80;;;5.00;;
13584;SDS011;6863;48.402;9.994;2022-08-03T01:05:15;6.43;;;5.75;;
13584;SDS011;6863;48.402;9.994;2022-08-03T01:10:15;6.32;;;4.88;;
13584;SDS011;6863;48.402;9.994;2022-08-03T01:12:58;6.22;;;5.55;;
13584;SDS011;6863;48.402;9.994;2022-08-03T01:18:13;5.38;;;4.97;;
13584;SDS011;6863;48.402;9.994;2022-08-03T01:20:46;5.72;;;5.32;;
13584;SDS011;6863;48.402;9.994;2022-08-03T01:26:04;6.00;;;5.43;;
13584;SDS011;6863;48.402;9.994;2022-08-03T01:31:32;5.07;;;4.68;;
13584;SDS011;6863;48.402;9.994;2022-08-03T01:34:32;5.78;;;5.03;;
13584;SDS011;6863;48.402;9.994;2022-08-03T01:37:02;6.95;;;5.30;;
13584;SDS011;6863;48.402;9.994;2022-08-03T01:39:31;7.00;;;5.30;;
13584;SDS011;6863;48.402;9.994;2022-08-03T01:41:59;5.50;;;5.10;;
13584;SDS011;6863;48.402;9.994;2022-08-03T01:44:30;8.20;;;5.30;;
13584;SDS011;6863;48.402;9.994;2022-08-03T01:47:01;7.75;;;5.93;;
13584;SDS011;6863;48.402;9.994;2022-08-03T01:49:29;7.78;;;5.07;;
13584;SDS011;6863;48.402;9.994;2022-08-03T01:51:58;5.72;;;5.15;;
13584;SDS011;6863;48.402;9.994;2022-08-03T01:56:51;6.30;;;5.60;;
13584;SDS011;6863;48.402;9.994;2022-08-03T01:59:18;6.50;;;5.90;;
13584;SDS011;6863;48.402;9.994;2022-08-03T02:01:46;6.00;;;5.50;;
13584;SDS011;6863;48.402;9.994;2022-08-03T02:04:13;6.18;;;5.57;;
13584;SDS011;6863;48.402;9.994;2022-08-03T02:06:42;6.47;;;5.88;;
13584;SDS011;6863;48.402;9.994;2022-08-03T02:09:11;6.05;;;5.45;;
13584;SDS011;6863;48.402;9.994;2022-08-03T02:11:38;6.55;;;5.85;;
13584;SDS011;6863;48.402;9.994;2022-08-03T02:14:04;6.68;;;5.75;;
13584;SDS011;6863;48.402;9.994;2022-08-03T02:16:32;5.93;;;5.43;;
13584;SDS011;6863;48.402;9.994;2022-08-03T02:18:58;5.53;;;5.13;;
13584;SDS011;6863;48.402;9.994;2022-08-03T02:21:27;6.22;;;5.63;;
13584;SDS011;6863;48.402;9.994;2022-08-03T02:23:55;7.05;;;5.57;;
13584;SDS011;6863;48.402;9.994;2022-08-03T02:26:21;7.80;;;6.57;;
13584;SDS011;6863;48.402;9.994;2022-08-03T02:28:51;7.75;;;6.05;;
13584;SDS011;6863;48.402;9.994;2022-08-03T02:31:20;6.20;;;5.60;;
13584;SDS011;6863;48.402;9.994;2022-08-03T02:33:52;5.78;;;5.30;;
13584;SDS011;6863;48.402;9.994;2022-08-03T02:36:26;6.25;;;5.63;;
13584;SDS011;6863;48.402;9.994;2022-08-03T02:38:55;6.68;;;6.07;;
13584;SDS011;6863;48.402;9.994;2022-08-03T02:41:24;5.45;;;5.00;;
13584;SDS011;6863;48.402;9.994;2022-08-03T02:43:54;6.13;;;5.53;;
13584;SDS011;6863;48.402;9.994;2022-08-03T02:46:23;5.70;;;5.30;;
13584;SDS011;6863;48.402;9.994;2022-08-03T02:48:52;5.65;;;5.15;;
13584;SDS011;6863;48.402;9.994;2022-08-03T02:51:19;6.47;;;5.97;;
13584;SDS011;6863;48.402;9.994;2022-08-03T02:53:47;6.57;;;5.95;;
13584;SDS011;6863;48.402;9.994;2022-08-03T02:56:13;6.03;;;5.53;;
13584;SDS011;6863;48.402;9.994;2022-08-03T02:58:41;7.03;;;6.38;;
13584;SDS011;6863;48.402;9.994;2022-08-03T03:01:09;6.22;;;5.60;;
13584;SDS011;6863;48.402;9.994;2022-08-03T03:03:36;5.60;;;5.10;;
13584;SDS011;6863;48.402;9.994;2022-08-03T03:06:04;6.37;;;5.77;;
13584;SDS011;6863;48.402;9.994;2022-08-03T03:08:31;7.63;;;6.77;;
13584;SDS011;6863;48.402;9.994;2022-08-03T03:10:58;6.63;;;5.97;;
13584;SDS011;6863;48.402;9.994;2022-08-03T03:13:29;6.43;;;5.77;;
13584;SDS011;6863;48.402;9.994;2022-08-03T03:15:58;6.67;;;6.07;;
13584;SDS011;6863;48.402;9.994;2022-08-03T03:18:26;8.60;;;6.40;;
13584;SDS011;6863;48.402;9.994;2022-08-03T03:20:53;6.60;;;6.00;;
13584;SDS011;6863;48.402;9.994;2022-08-03T03:23:20;5.57;;;5.17;;
13584;SDS011;6863;48.402;9.994;2022-08-03T03:25:47;5.83;;;5.23;;
13584;SDS011;6863;48.402;9.994;2022-08-03T03:28:13;6.33;;;5.73;;
13584;SDS011;6863;48.402;9.994;2022-08-03T03:30:39;6.53;;;5.93;;
13584;SDS011;6863;48.402;9.994;2022-08-03T03:33:05;6.60;;;6.00;;
13584;SDS011;6863;48.402;9.994;2022-08-03T03:35:31;6.57;;;5.90;;
13584;SDS011;6863;48.402;9.994;2022-08-03T03:37:57;6.20;;;5.60;;
13584;SDS011;6863;48.402;9.994;2022-08-03T03:40:23;6.43;;;5.80;;
13584;SDS011;6863;48.402;9.994;2022-08-03T03:42:49;6.27;;;5.77;;
13584;SDS011;6863;48.402;9.994;2022-08-03T03:45:15;7.53;;;6.60;;
13584;SDS011;6863;48.402;9.994;2022-08-03T03:47:40;6.77;;;5.93;;
13584;SDS011;6863;48.402;9.994;2022-08-03T03:50:06;7.33;;;6.23;;
13584;SDS011;6863;48.402;9.994;2022-08-03T03:52:32;6.97;;;6.37;;
13584;SDS011;6863;48.402;9.994;2022-08-03T03:54:58;7.53;;;6.73;;
13584;SDS011;6863;48.402;9.994;2022-08-03T03:57:24;8.07;;;6.63;;
13584;SDS011;6863;48.402;9.994;2022-08-03T03:59:51;6.83;;;6.13;;
13584;SDS011;6863;48.402;9.994;2022-08-03T04:02:17;8.07;;;7.37;;
13584;SDS011;6863;48.402;9.994;2022-08-03T04:04:42;7.13;;;6.43;;
13584;SDS011;6863;48.402;9.994;2022-08-03T04:07:26;7.73;;;6.60;;
13584;SDS011;6863;48.402;9.994;2022-08-03T04:10:17;7.30;;;6.60;;
13584;SDS011;6863;48.402;9.994;2022-08-03T04:13:08;7.73;;;6.93;;
13584;SDS011;6863;48.402;9.994;2022-08-03T04:15:37;6.97;;;6.37;;
13584;SDS011;6863;48.402;9.994;2022-08-03T04:18:04;7.23;;;6.53;;
13584;SDS011;6863;48.402;9.994;2022-08-03T04:20:34;6.93;;;6.40;;
13584;SDS011;6863;48.402;9.994;2022-08-03T04:23:01;7.97;;;6.70;;
13584;SDS011;6863;48.402;9.994;2022-08-03T04:25:31;7.80;;;7.00;;
13584;SDS011;6863;48.402;9.994;2022-08-03T04:28:01;7.80;;;6.20;;
13584;SDS011;6863;48.402;9.994;2022-08-03T04:30:27;6.97;;;6.27;;
13584;SDS011;6863;48.402;9.994;2022-08-03T04:32:55;8.17;;;7.13;;
13584;SDS011;6863;48.402;9.994;2022-08-03T04:35:23;7.03;;;6.27;;
13584;SDS011;6863;48.402;9.994;2022-08-03T04:37:52;7.33;;;6.63;;
13584;SDS011;6863;48.402;9.994;2022-08-03T04:40:23;7.33;;;6.47;;
13584;SDS011;6863;48.402;9.994;2022-08-03T04:42:52;9.90;;;6.80;;
13584;SDS011;6863;48.402;9.994;2022-08-03T04:45:19;8.10;;;7.10;;
13584;SDS011;6863;48.402;9.994;2022-08-03T04:47:45;7.73;;;6.77;;
13584;SDS011;6863;48.402;9.994;2022-08-03T04:50:11;7.53;;;6.57;;
13584;SDS011;6863;48.402;9.994;2022-08-03T04:52:37;6.70;;;6.10;;
13584;SDS011;6863;48.402;9.994;2022-08-03T04:55:03;6.77;;;6.17;;
13584;SDS011;6863;48.402;9.994;2022-08-03T04:57:29;8.18;;;6.00;;
13584;SDS011;6863;48.402;9.994;2022-08-03T04:59:55;7.07;;;6.47;;
13584;SDS011;6863;48.402;9.994;2022-08-03T05:02:21;7.78;;;7.10;;
13584;SDS011;6863;48.402;9.994;2022-08-03T05:04:47;8.00;;;7.20;;
13584;SDS011;6863;48.402;9.994;2022-08-03T05:07:14;6.47;;;5.78;;
13584;SDS011;6863;48.402;9.994;2022-08-03T05:09:40;6.35;;;5.75;;
13584;SDS011;6863;48.402;9.994;2022-08-03T05:12:06;6.07;;;5.47;;
13584;SDS011;6863;48.402;9.994;2022-08-03T05:14:33;7.00;;;6.30;;
13584;SDS011;6863;48.402;9.994;2022-08-03T05:17:00;7.47;;;6.43;;
13584;SDS011;6863;48.402;9.994;2022-08-03T05:19:25;7.28;;;6.57;;
13584;SDS011;6863;48.402;9.994;2022-08-03T05:21:51;8.88;;;6.85;;
13584;SDS011;6863;48.402;9.994;2022-08-03T05:24:16;9.13;;;6.32;;
13584;SDS011;6863;48.402;9.994;2022-08-03T05:26:42;6.65;;;5.97;;
13584;SDS011;6863;48.402;9.994;2022-08-03T05:29:07;6.95;;;5.80;;
13584;SDS011;6863;48.402;9.994;2022-08-03T05:31:33;6.35;;;5.75;;
13584;SDS011;6863;48.402;9.994;2022-08-03T05:33:58;7.30;;;6.70;;
13584;SDS011;6863;48.402;9.994;2022-08-03T05:36:24;8.15;;;7.35;;
13584;SDS011;6863;48.402;9.994;2022-08-03T05:38:50;8.18;;;7.38;;
13584;SDS011;6863;48.402;9.994;2022-08-03T05:41:15;8.88;;;7.13;;
13584;SDS011;6863;48.402;9.994;2022-08-03T05:43:41;7.70;;;5.38;;
13584;SDS011;6863;48.402;9.994;2022-08-03T05:46:07;7.13;;;6.20;;
13584;SDS011;6863;48.402;9.994;2022-08-03T05:48:32;12.63;;;9.95;;
13584;SDS011;6863;48.402;9.994;2022-08-03T05:50:58;7.97;;;7.20;;
13584;SDS011;6863;48.402;9.994;2022-08-03T05:53:23;31.33;;;25.83;;
13584;SDS011;6863;48.402;9.994;2022-08-03T05:55:50;8.48;;;6.85;;
13584;SDS011;6863;48.402;9.994;2022-08-03T05:58:16;9.15;;;8.35;;
13584;SDS011;6863;48.402;9.994;2022-08-03T06:00:41;9.15;;;6.07;;
13584;SDS011;6863;48.402;9.994;2022-08-03T06:03:07;8.23;;;6.60;;
13584;SDS011;6863;48.402;9.994;2022-08-03T06:05:32;7.55;;;6.18;;
13584;SDS011;6863;48.402;9.994;2022-08-03T06:08:00;7.60;;;5.90;;
13584;SDS011;6863;48.402;9.994;2022-08-03T06:10:27;8.40;;;5.45;;
13584;SDS011;6863;48.402;9.994;2022-08-03T06:12:52;6.07;;;5.47;;
13584;SDS011;6863;48.402;9.994;2022-08-03T06:15:18;9.65;;;6.35;;
13584;SDS011;6863;48.402;9.994;2022-08-03T06:17:44;5.43;;;5.03;;
13584;SDS011;6863;48.402;9.994;2022-08-03T06:20:11;7.72;;;5.50;;
13584;SDS011;6863;48.402;9.994;2022-08-03T06:22:37;5.55;;;5.05;;
13584;SDS011;6863;48.402;9.994;2022-08-03T06:25:02;4.70;;;4.30;;
13584;SDS011;6863;48.402;9.994;2022-08-03T06:27:28;5.05;;;4.65;;
13584;SDS011;6863;48.402;9.994;2022-08-03T06:29:53;5.47;;;5.05;;
13584;SDS011;6863;48.402;9.994;2022-08-03T06:32:19;9.57;;;6.18;;
13584;SDS011;6863;48.402;9.994;2022-08-03T06:34:46;4.63;;;4.20;;
13584;SDS011;6863;48.402;9.994;2022-08-03T06:37:12;4.35;;;4.05;;
13584;SDS011;6863;48.402;9.994;2022-08-03T06:39:38;5.50;;;4.20;;
13584;SDS011;6863;48.402;9.994;2022-08-03T06:42:04;4.40;;;4.10;;
13584;SDS011;6863;48.402;9.994;2022-08-03T06:44:29;4.03;;;3.72;;
13584;SDS011;6863;48.402;9.994;2022-08-03T06:46:55;4.53;;;4.22;;
13584;SDS011;6863;48.402;9.994;2022-08-03T06:49:21;5.78;;;4.35;;
13584;SDS011;6863;48.402;9.994;2022-08-03T06:51:46;4.25;;;3.95;;
13584;SDS011;6863;48.402;9.994;2022-08-03T06:56:55;4.05;;;3.67;;
13584;SDS011;6863;48.402;9.994;2022-08-03T06:59:20;4.05;;;3.65;;
13584;SDS011;6863;48.402;9.994;2022-08-03T07:01:46;4.88;;;4.05;;
13584;SDS011;6863;48.402;9.994;2022-08-03T07:04:11;4.35;;;3.38;;
13584;SDS011;6863;48.402;9.994;2022-08-03T07:06:37;4.75;;;3.63;;
13584;SDS011;6863;48.402;9.994;2022-08-03T07:09:03;5.03;;;4.18;;
13584;SDS011;6863;48.402;9.994;2022-08-03T07:11:29;4.13;;;3.47;;
13584;SDS011;6863;48.402;9.994;2022-08-03T07:13:54;4.05;;;3.00;;
13584;SDS011;6863;48.402;9.994;2022-08-03T07:16:20;3.17;;;2.95;;
13584;SDS011;6863;48.402;9.994;2022-08-03T07:18:46;2.92;;;2.72;;
13584;SDS011;6863;48.402;9.994;2022-08-03T07:21:12;3.17;;;2.88;;
13584;SDS011;6863;48.402;9.994;2022-08-03T07:23:40;3.83;;;3.28;;
13584;SDS011;6863;48.402;9.994;2022-08-03T07:26:05;3.67;;;2.80;;
13584;SDS011;6863;48.402;9.994;2022-08-03T07:28:31;3.35;;;3.05;;
13584;SDS011;6863;48.402;9.994;2022-08-03T07:30:56;2.85;;;2.70;;
13584;SDS011;6863;48.402;9.994;2022-08-03T07:33:23;5.22;;;3.05;;
13584;SDS011;6863;48.402;9.994;2022-08-03T07:35:49;3.20;;;2.90;;
13584;SDS011;6863;48.402;9.994;2022-08-03T07:38:15;3.13;;;2.83;;
13584;SDS011;6863;48.402;9.994;2022-08-03T07:40:40;3.20;;;2.90;;
13584;SDS011;6863;48.402;9.994;2022-08-03T07:43:06;4.60;;;2.90;;
13584;SDS011;6863;48.402;9.994;2022-08-03T07:45:31;3.60;;;2.88;;
13584;SDS011;6863;48.402;9.994;2022-08-03T07:47:57;2.70;;;2.50;;
13584;SDS011;6863;48.402;9.994;2022-08-03T07:50:22;2.90;;;2.70;;
13584;SDS011;6863;48.402;9.994;2022-08-03T07:52:48;3.20;;;2.40;;
13584;SDS011;6863;48.402;9.994;2022-08-03T07:55:17;3.92;;;2.40;;
13584;SDS011;6863;48.402;9.994;2022-08-03T07:57:47;3.10;;;2.88;;
13584;SDS011;6863;48.402;9.994;2022-08-03T08:00:24;2.60;;;2.40;;
13584;SDS011;6863;48.402;9.994;2022-08-03T08:02:49;2.67;;;2.55;;
13584;SDS011;6863;48.402;9.994;2022-08-03T08:05:15;3.25;;;2.95;;
13584;SDS011;6863;48.402;9.994;2022-08-03T08:07:42;2.95;;;2.75;;
13584;SDS011;6863;48.402;9.994;2022-08-03T08:10:08;3.13;;;2.55;;
13584;SDS011;6863;48.402;9.994;2022-08-03T08:12:34;2.45;;;2.25;;
13584;SDS011;6863;48.402;9.994;2022-08-03T08:15:00;2.50;;;2.40;;
13584;SDS011;6863;48.402;9.994;2022-08-03T08:17:26;3.08;;;2.42;;
13584;SDS011;6863;48.402;9.994;2022-08-03T08:19:52;2.30;;;2.08;;
13584;SDS011;6863;48.402;9.994;2022-08-03T08:22:18;2.78;;;2.20;;
13584;SDS011;6863;48.402;9.994;2022-08-03T08:24:43;2.70;;;2.38;;
13584;SDS011;6863;48.402;9.994;2022-08-03T08:27:09;2.40;;;2.03;;
13584;SDS011;6863;48.402;9.994;2022-08-03T08:29:36;3.15;;;2.60;;
13584;SDS011;6863;48.402;9.994;2022-08-03T08:32:02;5.68;;;2.90;;
13584;SDS011;6863;48.402;9.994;2022-08-03T08:34:28;2.53;;;2.33;;
13584;SDS011;6863;48.402;9.994;2022-08-03T08:36:54;2.70;;;2.50;;
13584;SDS011;6863;48.402;9.994;2022-08-03T08:39:19;3.50;;;2.30;;
13584;SDS011;6863;48.402;9.994;2022-08-03T08:41:45;2.08;;;1.92;;
13584;SDS011;6863;48.402;9.994;2022-08-03T08:44:10;2.17;;;2.08;;
13584;SDS011;6863;48.402;9.994;2022-08-03T08:46:36;2.60;;;2.15;;
13584;SDS011;6863;48.402;9.994;2022-08-03T08:49:03;1.95;;;1.85;;
13584;SDS011;6863;48.402;9.994;2022-08-03T08:51:33;2.08;;;1.98;;
13584;SDS011;6863;48.402;9.994;2022-08-03T08:54:01;2.30;;;2.17;;
13584;SDS011;6863;48.402;9.994;2022-08-03T08:56:28;2.35;;;2.15;;
13584;SDS011;6863;48.402;9.994;2022-08-03T08:58:59;2.50;;;2.30;;
13584;SDS011;6863;48.402;9.994;2022-08-03T09:01:25;2.00;;;1.80;;
13584;SDS011;6863;48.402;9.994;2022-08-03T09:03:52;2.05;;;1.95;;
13584;SDS011;6863;48.402;9.994;2022-08-03T09:06:18;3.33;;;2.10;;
13584;SDS011;6863;48.402;9.994;2022-08-03T09:08:45;2.35;;;2.13;;
13584;SDS011;6863;48.402;9.994;2022-08-03T09:11:10;2.60;;;2.40;;
13584;SDS011;6863;48.402;9.994;2022-08-03T09:13:37;1.88;;;1.77;;
13584;SDS011;6863;48.402;9.994;2022-08-03T09:18:37;2.20;;;2.00;;
13584;SDS011;6863;48.402;9.994;2022-08-03T09:23:44;2.03;;;1.92;;
13584;SDS011;6863;48.402;9.994;2022-08-03T09:26:21;2.60;;;2.20;;
13584;SDS011;6863;48.402;9.994;2022-08-03T09:28:55;4.72;;;2.72;;
13584;SDS011;6863;48.402;9.994;2022-08-03T09:31:29;3.60;;;2.17;;
13584;SDS011;6863;48.402;9.994;2022-08-03T09:34:05;2.78;;;1.90;;
13584;SDS011;6863;48.402;9.994;2022-08-03T09:36:42;2.00;;;1.90;;
13584;SDS011;6863;48.402;9.994;2022-08-03T09:39:13;2.08;;;1.98;;
13584;SDS011;6863;48.402;9.994;2022-08-03T09:41:45;2.38;;;2.17;;
13584;SDS011;6863;48.402;9.994;2022-08-03T09:44:12;1.88;;;1.70;;
13584;SDS011;6863;48.402;9.994;2022-08-03T09:46:48;2.38;;;1.95;;
13584;SDS011;6863;48.402;9.994;2022-08-03T09:49:15;2.38;;;2.00;;
13584;SDS011;6863;48.402;9.994;2022-08-03T09:51:41;2.35;;;2.20;;
13584;SDS011;6863;48.402;9.994;2022-08-03T09:54:07;1.85;;;1.75;;
13584;SDS011;6863;48.402;9.994;2022-08-03T09:59:04;2.28;;;2.13;;
13584;SDS011;6863;48.402;9.994;2022-08-03T10:01:31;2.88;;;2.28;;
13584;SDS011;6863;48.402;9.994;2022-08-03T10:03:58;2.30;;;2.10;;
13584;SDS011;6863;48.402;9.994;2022-08-03T10:06:24;2.00;;;1.90;;
13584;SDS011;6863;48.402;9.994;2022-08-03T10:11:49;2.22;;;2.03;;
13584;SDS011;6863;48.402;9.994;2022-08-03T10:14:14;2.30;;;2.00;;
13584;SDS011;6863;48.402;9.994;2022-08-03T10:16:43;2.03;;;1.73;;
13584;SDS011;6863;48.402;9.994;2022-08-03T10:19:10;2.10;;;2.00;;
13584;SDS011;6863;48.402;9.994;2022-08-03T10:21:38;2.17;;;1.80;;
13584;SDS011;6863;48.402;9.994;2022-08-03T10:24:07;2.00;;;1.80;;
13584;SDS011;6863;48.402;9.994;2022-08-03T10:26:36;1.55;;;1.50;;
13584;SDS011;6863;48.402;9.994;2022-08-03T10:31:33;1.60;;;1.50;;
13584;SDS011;6863;48.402;9.994;2022-08-03T10:34:04;1.73;;;1.63;;
13584;SDS011;6863;48.402;9.994;2022-08-03T10:36:35;2.03;;;1.92;;
13584;SDS011;6863;48.402;9.994;2022-08-03T10:39:03;2.55;;;2.35;;
13584;SDS011;6863;48.402;9.994;2022-08-03T10:41:34;1.95;;;1.85;;
13584;SDS011;6863;48.402;9.994;2022-08-03T10:44:05;1.60;;;1.50;;
13584;SDS011;6863;48.402;9.994;2022-08-03T10:46:34;1.83;;;1.67;;
13584;SDS011;6863;48.402;9.994;2022-08-03T10:49:02;1.90;;;1.80;;
13584;SDS011;6863;48.402;9.994;2022-08-03T10:51:29;1.80;;;1.70;;
13584;SDS011;6863;48.402;9.994;2022-08-03T10:53:56;1.67;;;1.58;;
13584;SDS011;6863;48.402;9.994;2022-08-03T10:59:16;1.70;;;1.60;;
13584;SDS011;6863;48.402;9.994;2022-08-03T11:01:48;1.63;;;1.52;;
13584;SDS011;6863;48.402;9.994;2022-08-03T11:04:20;1.95;;;1.70;;
13584;SDS011;6863;48.402;9.994;2022-08-03T11:07:16;1.45;;;1.45;;
13584;SDS011;6863;48.402;9.994;2022-08-03T11:09:41;1.83;;;1.73;;
13584;SDS011;6863;48.402;9.994;2022-08-03T11:12:31;1.58;;;1.48;;
13584;SDS011;6863;48.402;9.994;2022-08-03T11:14:58;1.65;;;1.40;;
13584;SDS011;6863;48.402;9.994;2022-08-03T11:17:26;1.95;;;1.60;;
13584;SDS011;6863;48.402;9.994;2022-08-03T11:19:52;1.48;;;1.38;;
13584;SDS011;6863;48.402;9.994;2022-08-03T11:22:19;1.55;;;1.48;;
13584;SDS011;6863;48.402;9.994;2022-08-03T11:27:21;1.60;;;1.60;;
13584;SDS011;6863;48.402;9.994;2022-08-03T11:29:58;1.27;;;1.25;;
13584;SDS011;6863;48.402;9.994;2022-08-03T11:35:16;2.97;;;1.55;;
13584;SDS011;6863;48.402;9.994;2022-08-03T11:48:21;1.95;;;1.60;;
13584;SDS011;6863;48.402;9.994;2022-08-03T11:50:50;1.60;;;1.50;;
13584;SDS011;6863;48.402;9.994;2022-08-03T11:53:17;2.08;;;1.88;;
13584;SDS011;6863;48.402;9.994;2022-08-03T11:55:46;1.27;;;1.27;;
13584;SDS011;6863;48.402;9.994;2022-08-03T11:58:17;1.27;;;1.27;;
13584;SDS011;6863;48.402;9.994;2022-08-03T12:00:47;1.30;;;1.30;;
13584;SDS011;6863;48.402;9.994;2022-08-03T12:03:14;2.05;;;1.95;;
13584;SDS011;6863;48.402;9.994;2022-08-03T12:05:43;1.90;;;1.80;;
13584;SDS011;6863;48.402;9.994;2022-08-03T12:08:12;2.00;;;1.52;;
13584;SDS011;6863;48.402;9.994;2022-08-03T12:10:44;1.30;;;1.30;;
13584;SDS011;6863;48.402;9.994;2022-08-03T12:13:14;1.70;;;1.60;;
13584;SDS011;6863;48.402;9.994;2022-08-03T12:15:41;1.88;;;1.77;;
13584;SDS011;6863;48.402;9.994;2022-08-03T12:18:16;1.60;;;1.50;;
13584;SDS011;6863;48.402;9.994;2022-08-03T12:20:44;2.00;;;1.88;;
13584;SDS011;6863;48.402;9.994;2022-08-03T12:23:10;1.63;;;1.63;;
13584;SDS011;6863;48.402;9.994;2022-08-03T12:25:37;1.70;;;1.60;;
13584;SDS011;6863;48.402;9.994;2022-08-03T12:28:17;1.75;;;1.65;;
13584;SDS011;6863;48.402;9.994;2022-08-03T12:30:47;1.60;;;1.60;;
13584;SDS011;6863;48.402;9.994;2022-08-03T12:33:15;1.48;;;1.42;;
13584;SDS011;6863;48.402;9.994;2022-08-03T12:35:46;1.63;;;1.50;;
13584;SDS011;6863;48.402;9.994;2022-08-03T12:38:12;1.80;;;1.70;;
13584;SDS011;6863;48.402;9.994;2022-08-03T12:40:43;1.30;;;1.30;;
13584;SDS011;6863;48.402;9.994;2022-08-03T12:43:10;2.38;;;1.70;;
13584;SDS011;6863;48.402;9.994;2022-08-03T12:45:36;2.30;;;1.65;;
13584;SDS011;6863;48.402;9.994;2022-08-03T12:48:02;2.00;;;1.90;;
13584;SDS011;6863;48.402;9.994;2022-08-03T12:50:36;2.72;;;2.10;;
13584;SDS011;6863;48.402;9.994;2022-08-03T12:53:03;1.70;;;1.60;;
13584;SDS011;6863;48.402;9.994;2022-08-03T12:55:30;2.10;;;1.70;;
13584;SDS011;6863;48.402;9.994;2022-08-03T12:58:00;2.97;;;2.00;;
13584;SDS011;6863;48.402;9.994;2022-08-03T13:00:34;1.80;;;1.70;;
13584;SDS011;6863;48.402;9.994;2022-08-03T13:03:01;1.58;;;1.55;;
13584;SDS011;6863;48.402;9.994;2022-08-03T13:05:29;1.65;;;1.65;;
13584;SDS011;6863;48.402;9.994;2022-08-03T13:07:55;1.92;;;1.83;;
13584;SDS011;6863;48.402;9.994;2022-08-03T13:10:31;1.80;;;1.70;;
13584;SDS011;6863;48.402;9.994;2022-08-03T13:12:57;1.65;;;1.50;;
13584;SDS011;6863;48.402;9.994;2022-08-03T13:15:24;1.63;;;1.60;;
13584;SDS011;6863;48.402;9.994;2022-08-03T13:17:52;1.95;;;1.85;;
13584;SDS011;6863;48.402;9.994;2022-08-03T13:20:20;1.80;;;1.70;;
13584;SDS011;6863;48.402;9.994;2022-08-03T13:22:46;1.92;;;1.77;;
13584;SDS011;6863;48.402;9.994;2022-08-03T13:25:12;2.20;;;2.10;;
13584;SDS011;6863;48.402;9.994;2022-08-03T13:27:37;2.08;;;1.92;;
13584;SDS011;6863;48.402;9.994;2022-08-03T13:30:03;2.00;;;1.88;;
13584;SDS011;6863;48.402;9.994;2022-08-03T13:32:30;2.28;;;1.70;;
13584;SDS011;6863;48.402;9.994;2022-08-03T13:34:57;3.70;;;2.10;;
13584;SDS011;6863;48.402;9.994;2022-08-03T13:37:23;2.03;;;1.92;;
13584;SDS011;6863;48.402;9.994;2022-08-03T13:39:49;1.60;;;1.50;;
13584;SDS011;6863;48.402;9.994;2022-08-03T13:42:15;1.98;;;1.77;;
13584;SDS011;6863;48.402;9.994;2022-08-03T13:44:40;1.83;;;1.63;;
13584;SDS011;6863;48.402;9.994;2022-08-03T13:47:06;1.90;;;1.80;;
13584;SDS011;6863;48.402;9.994;2022-08-03T13:49:31;1.83;;;1.73;;
13584;SDS011;6863;48.402;9.994;2022-08-03T13:51:57;1.70;;;1.60;;
13584;SDS011;6863;48.402;9.994;2022-08-03T13:54:23;1.55;;;1.48;;
13584;SDS011;6863;48.402;9.994;2022-08-03T13:56:49;1.80;;;1.70;;
13584;SDS011;6863;48.402;9.994;2022-08-03T13:59:18;2.45;;;1.80;;
13584;SDS011;6863;48.402;9.994;2022-08-03T14:01:44;2.10;;;1.90;;
13584;SDS011;6863;48.402;9.994;2022-08-03T14:04:10;2.05;;;1.95;;
13584;SDS011;6863;48.402;9.994;2022-08-03T14:06:36;1.77;;;1.67;;
13584;SDS011;6863;48.402;9.994;2022-08-03T14:09:01;1.92;;;1.85;;
13584;SDS011;6863;48.402;9.994;2022-08-03T14:11:27;1.50;;;1.50;;
13584;SDS011;6863;48.402;9.994;2022-08-03T14:13:53;1.60;;;1.50;;
13584;SDS011;6863;48.402;9.994;2022-08-03T14:16:18;2.40;;;1.65;;
13584;SDS011;6863;48.402;9.994;2022-08-03T14:18:44;1.80;;;1.70;;
13584;SDS011;6863;48.402;9.994;2022-08-03T14:21:10;1.58;;;1.58;;
13584;SDS011;6863;48.402;9.994;2022-08-03T14:23:37;1.50;;;1.40;;
13584;SDS011;6863;48.402;9.994;2022-08-03T14:26:06;1.70;;;1.60;;
13584;SDS011;6863;48.402;9.994;2022-08-03T14:28:32;2.38;;;2.10;;
13584;SDS011;6863;48.402;9.994;2022-08-03T14:30:58;2.40;;;1.70;;
13584;SDS011;6863;48.402;9.994;2022-08-03T14:33:25;2.05;;;1.85;;
13584;SDS011;6863;48.402;9.994;2022-08-03T14:35:52;3.92;;;1.90;;
13584;SDS011;6863;48.402;9.994;2022-08-03T14:38:18;1.80;;;1.70;;
13584;SDS011;6863;48.402;9.994;2022-08-03T14:40:45;1.60;;;1.50;;
13584;SDS011;6863;48.402;9.994;2022-08-03T14:43:11;1.40;;;1.40;;
13584;SDS011;6863;48.402;9.994;2022-08-03T14:45:38;3.08;;;1.80;;
13584;SDS011;6863;48.402;9.994;2022-08-03T14:48:04;1.70;;;1.60;;
13584;SDS011;6863;48.402;9.994;2022-08-03T14:50:29;1.88;;;1.77;;
13584;SDS011;6863;48.402;9.994;2022-08-03T14:52:55;1.50;;;1.50;;
13584;SDS011;6863;48.402;9.994;2022-08-03T14:55:21;1.52;;;1.52;;
13584;SDS011;6863;48.402;9.994;2022-08-03T14:57:46;1.88;;;1.77;;
13584;SDS011;6863;48.402;9.994;2022-08-03T15:00:12;1.77;;;1.67;;
13584;SDS011;6863;48.402;9.994;2022-08-03T15:02:38;1.80;;;1.63;;
13584;SDS011;6863;48.402;9.994;2022-08-03T15:05:04;1.55;;;1.45;;
13584;SDS011;6863;48.402;9.994;2022-08-03T15:07:30;1.70;;;1.58;;
13584;SDS011;6863;48.402;9.994;2022-08-03T15:09:55;1.85;;;1.60;;
13584;SDS011;6863;48.402;9.994;2022-08-03T15:12:21;1.60;;;1.50;;
13584;SDS011;6863;48.402;9.994;2022-08-03T15:14:47;2.35;;;2.08;;
13584;SDS011;6863;48.402;9.994;2022-08-03T15:17:12;1.95;;;1.85;;
13584;SDS011;6863;48.402;9.994;2022-08-03T15:19:38;1.77;;;1.73;;
13584;SDS011;6863;48.402;9.994;2022-08-03T15:22:04;1.77;;;1.67;;
13584;SDS011;6863;48.402;9.994;2022-08-03T15:24:30;1.92;;;1.73;;
13584;SDS011;6863;48.402;9.994;2022-08-03T15:26:55;2.25;;;2.05;;
13584;SDS011;6863;48.402;9.994;2022-08-03T15:29:22;2.63;;;1.70;;
13584;SDS011;6863;48.402;9.994;2022-08-03T15:31:48;2.00;;;1.90;;
13584;SDS011;6863;48.402;9.994;2022-08-03T15:34:13;1.70;;;1.67;;
13584;SDS011;6863;48.402;9.994;2022-08-03T15:36:39;1.80;;;1.70;;
13584;SDS011;6863;48.402;9.994;2022-08-03T15:39:05;2.00;;;1.90;;
13584;SDS011;6863;48.402;9.994;2022-08-03T15:41:30;1.80;;;1.70;;
13584;SDS011;6863;48.402;9.994;2022-08-03T15:43:56;1.92;;;1.83;;
13584;SDS011;6863;48.402;9.994;2022-08-03T15:46:22;2.08;;;1.85;;
13584;SDS011;6863;48.402;9.994;2022-08-03T15:48:48;1.75;;;1.65;;
13584;SDS011;6863;48.402;9.994;2022-08-03T15:51:13;1.58;;;1.48;;